Holbrook, New York
Current Conditions -  °F | °C
As of 10:56 AM on Friday 19 Dec 2014 (Local Time) from KISP Reporting Station
Overcast Overcast  
Wind Chill: 30°   Ceiling: 3000
Heat Index: 37°   Visibility: 10mi
Dew Point: 24°   Wind: 10mph
Humidity: 59%   Direction: 320°NW
Pressure: 30"   Gusts: NA
Location:  40.79°N, 73.07°W
Report Text: KISP 191556Z 32009KT 10SM FEW025 OVC030 03/M04 A3000 RMK AO2 SLP160 T00281044
Loading
Personal Weather Stations






























Interactive Weather Map New forecast layout! Learn more

10-Day Weather Forecast

Advertisements
Track Severe Weather on mobile